createdAt,value
2018-09-25T00:54:26.452Z,77.80
2018-09-25T00:57:04.517Z,78.20
2018-09-25T00:59:41.727Z,76.90
2018-09-25T01:02:18.781Z,76.90
2018-09-25T01:04:56.300Z,76.90
2018-09-25T01:07:33.800Z,77.10
2018-09-25T01:10:10.353Z,77.70
2018-09-25T01:12:47.494Z,77.30
2018-09-25T01:15:24.199Z,78.20
2018-09-25T01:18:01.044Z,77.90
2018-09-25T01:20:37.823Z,78.40
2018-09-25T01:23:14.574Z,78.80
2018-09-25T01:25:51.326Z,78.00
2018-09-25T01:28:28.020Z,77.80
2018-09-25T01:31:04.899Z,77.90
2018-09-25T01:33:41.686Z,77.90
2018-09-25T01:36:18.372Z,78.10
2018-09-25T01:38:55.347Z,78.60
2018-09-25T01:41:32.561Z,78.10
2018-09-25T01:44:10.202Z,78.10
2018-09-25T01:46:47.406Z,78.00
2018-09-25T01:49:24.178Z,78.90
2018-09-25T01:52:00.983Z,78.60
2018-09-25T01:54:37.777Z,78.50
2018-09-25T01:57:15.621Z,78.20
2018-09-25T01:59:52.436Z,78.60
2018-09-25T02:02:29.201Z,79.10
2018-09-25T02:05:05.970Z,79.00
2018-09-25T02:07:42.564Z,78.40
2018-09-25T02:10:19.568Z,78.00
2018-09-25T02:12:56.612Z,78.20
2018-09-25T02:15:33.587Z,77.90
2018-09-25T02:18:10.559Z,79.20
2018-09-25T02:20:47.384Z,78.90
2018-09-25T02:23:24.377Z,78.30
2018-09-25T02:26:01.017Z,79.30
2018-09-25T02:28:38.143Z,78.70
2018-09-25T02:31:15.010Z,79.10
2018-09-25T02:33:52.025Z,79.00
2018-09-25T02:36:28.783Z,78.60
2018-09-25T02:39:05.405Z,80.00
2018-09-25T02:41:42.010Z,79.40
2018-09-25T02:44:18.704Z,79.10
2018-09-25T02:46:55.249Z,79.00
2018-09-25T02:49:32.355Z,79.50
2018-09-25T02:52:10.167Z,79.40
2018-09-25T02:54:47.585Z,79.20
2018-09-25T02:57:24.515Z,80.00
2018-09-25T03:00:01.161Z,79.80
2018-09-25T03:02:37.716Z,79.30
2018-09-25T03:05:14.437Z,79.10
2018-09-25T03:07:51.223Z,79.10
2018-09-25T03:10:27.783Z,79.40
2018-09-25T03:13:04.597Z,78.20
2018-09-25T03:15:41.487Z,78.50
2018-09-25T03:18:18.445Z,78.10
2018-09-25T03:20:55.341Z,77.90
2018-09-25T03:23:32.223Z,77.50
2018-09-25T03:26:09.390Z,78.10
2018-09-25T03:28:46.339Z,78.00
2018-09-25T03:31:23.307Z,78.70
2018-09-25T03:34:00.267Z,78.50
2018-09-25T03:36:37.421Z,77.90
2018-09-25T03:39:15.517Z,77.10
2018-09-25T03:41:52.714Z,77.20
2018-09-25T03:44:30.174Z,78.10
2018-09-25T03:47:07.430Z,78.10
2018-09-25T03:49:44.693Z,76.50
2018-09-25T03:52:21.831Z,77.20
2018-09-25T03:54:58.755Z,76.90
2018-09-25T03:57:35.833Z,76.90
2018-09-25T04:00:13.184Z,77.50
2018-09-25T04:02:50.580Z,78.00
2018-09-25T04:05:27.491Z,77.50
2018-09-25T04:08:04.847Z,77.30
2018-09-25T04:10:42.057Z,76.70
2018-09-25T04:13:19.460Z,77.30
2018-09-25T04:15:56.408Z,76.10
2018-09-25T04:18:33.578Z,75.90
2018-09-25T04:21:10.777Z,75.90
2018-09-25T04:23:48.049Z,76.10
2018-09-25T04:26:25.223Z,75.80
2018-09-25T04:29:02.450Z,76.50
2018-09-25T04:31:39.837Z,74.80
2018-09-25T04:34:16.866Z,75.60
2018-09-25T04:36:53.913Z,75.00
2018-09-25T04:39:30.873Z,75.10
2018-09-25T04:42:08.080Z,75.10
2018-09-25T04:44:45.239Z,74.50
2018-09-25T04:47:22.561Z,75.60
2018-09-25T04:50:00.022Z,75.10
2018-09-25T04:52:37.101Z,75.10
2018-09-25T04:55:14.322Z,74.90
2018-09-25T04:57:51.252Z,75.00
2018-09-25T05:00:28.274Z,75.40
2018-09-25T05:03:06.681Z,75.50
2018-09-25T05:05:43.884Z,75.10
2018-09-25T05:08:21.582Z,74.50
2018-09-25T05:10:58.123Z,74.10
2018-09-25T05:13:35.542Z,73.80
2018-09-25T05:16:12.476Z,73.60
2018-09-25T05:18:49.438Z,73.10
2018-09-25T05:21:26.710Z,72.90
2018-09-25T05:24:03.876Z,73.10
2018-09-25T05:26:41.085Z,72.30
2018-09-25T05:29:18.136Z,72.00
2018-09-25T05:31:55.071Z,72.60
2018-09-25T05:34:32.624Z,71.40
2018-09-25T05:37:09.693Z,70.90
2018-09-25T05:39:46.537Z,71.20
2018-09-25T05:42:23.703Z,70.80
2018-09-25T05:45:00.616Z,69.80
2018-09-25T05:47:37.194Z,69.40
2018-09-25T05:50:14.496Z,68.80
2018-09-25T05:52:51.655Z,68.70
2018-09-25T05:55:28.527Z,68.40
2018-09-25T05:58:06.218Z,66.80
2018-09-25T06:00:43.428Z,65.70
2018-09-25T06:03:20.302Z,65.90
2018-09-25T06:05:57.388Z,65.60
2018-09-25T06:08:34.639Z,65.20
2018-09-25T06:11:12.662Z,64.70
2018-09-25T06:13:50.430Z,63.60
2018-09-25T06:16:27.701Z,63.40
2018-09-25T06:19:05.222Z,63.80
2018-09-25T06:21:42.322Z,63.30
2018-09-25T06:24:19.503Z,62.10
2018-09-25T06:26:57.052Z,61.30
2018-09-25T06:29:33.895Z,61.30
2018-09-25T06:32:11.338Z,61.00
2018-09-25T06:34:49.649Z,59.90
2018-09-25T06:37:26.618Z,60.00
2018-09-25T06:40:04.711Z,60.40
2018-09-25T06:42:41.865Z,59.30
2018-09-25T06:45:19.289Z,59.80
2018-09-25T06:47:56.675Z,60.30
2018-09-25T06:50:33.789Z,61.40
2018-09-25T06:53:11.055Z,60.20
2018-09-25T06:55:48.486Z,60.00
2018-09-25T06:58:25.814Z,60.20
2018-09-25T07:01:03.783Z,60.60
2018-09-25T07:03:40.752Z,59.20
2018-09-25T07:06:17.985Z,59.00
2018-09-25T07:08:55.040Z,56.90
2018-09-25T07:11:32.267Z,58.20
2018-09-25T07:14:09.321Z,58.10
2018-09-25T07:16:46.377Z,57.50
2018-09-25T07:19:23.700Z,57.10
2018-09-25T07:22:00.742Z,57.60
2018-09-25T07:24:37.957Z,56.60
2018-09-25T07:27:15.020Z,56.10
2018-09-25T07:29:52.063Z,55.40
2018-09-25T07:32:28.911Z,56.20
2018-09-25T07:35:05.932Z,55.00
2018-09-25T07:37:42.809Z,55.60
2018-09-25T07:40:20.080Z,54.60
2018-09-25T07:42:57.062Z,54.40
2018-09-25T07:45:34.186Z,53.60
2018-09-25T07:48:12.073Z,54.40
2018-09-25T07:50:49.127Z,54.90
2018-09-25T07:53:26.252Z,55.60
2018-09-25T07:56:03.065Z,54.10
2018-09-25T07:58:40.112Z,52.70
2018-09-25T08:01:17.756Z,51.90
2018-09-25T08:03:55.776Z,52.20
2018-09-25T08:06:33.056Z,52.00
2018-09-25T08:09:12.662Z,50.80
2018-09-25T08:11:50.023Z,51.10
2018-09-25T08:14:28.440Z,50.40
2018-09-25T08:17:05.733Z,50.60
2018-09-25T08:19:43.514Z,50.10
2018-09-25T08:22:20.695Z,50.30
2018-09-25T08:24:57.501Z,51.10
2018-09-25T08:27:34.664Z,49.70
2018-09-25T08:30:13.203Z,49.40
2018-09-25T08:32:50.168Z,49.00
2018-09-25T08:35:27.165Z,48.00
2018-09-25T08:38:03.809Z,48.90
2018-09-25T08:40:43.091Z,47.30
2018-09-25T08:43:20.189Z,47.50
2018-09-25T08:45:58.533Z,47.00
2018-09-25T08:48:37.781Z,46.40
2018-09-25T08:51:15.462Z,46.00
2018-09-25T08:53:52.180Z,46.40
2018-09-25T08:56:28.788Z,45.70
2018-09-25T08:59:05.777Z,45.10
2018-09-25T09:01:43.224Z,44.10
2018-09-25T09:04:20.540Z,44.70
2018-09-25T09:06:57.184Z,43.30
2018-09-25T09:09:34.173Z,43.90
2018-09-25T09:12:11.275Z,43.60
2018-09-25T09:14:48.295Z,44.20
2018-09-25T09:17:25.191Z,43.90
2018-09-25T09:20:02.304Z,43.40
2018-09-25T09:22:39.607Z,42.10
2018-09-25T09:25:16.354Z,41.60
2018-09-25T09:27:53.130Z,40.50
2018-09-25T09:30:30.144Z,42.90
2018-09-25T09:33:07.202Z,42.10
2018-09-25T09:35:44.280Z,42.80
2018-09-25T09:38:21.367Z,41.80
2018-09-25T09:40:58.425Z,41.20
2018-09-25T09:43:35.286Z,41.90
2018-09-25T09:46:12.459Z,40.90
2018-09-25T09:48:49.877Z,41.20
2018-09-25T09:51:26.692Z,40.50
2018-09-25T09:54:03.456Z,41.40
2018-09-25T09:56:40.393Z,40.30
2018-09-25T09:59:17.124Z,40.50
2018-09-25T10:01:53.958Z,41.00
2018-09-25T10:04:31.223Z,40.50
2018-09-25T10:07:08.114Z,39.00
2018-09-25T10:09:44.963Z,40.40
2018-09-25T10:12:21.512Z,40.60
2018-09-25T10:14:58.586Z,37.50
2018-09-25T10:17:35.968Z,40.50
2018-09-25T10:20:13.347Z,40.40
2018-09-25T10:22:50.005Z,39.00
2018-09-25T10:25:26.882Z,40.10
2018-09-25T10:28:04.224Z,38.70
2018-09-25T10:30:41.270Z,37.70
2018-09-25T10:33:18.284Z,37.50
2018-09-25T10:35:55.319Z,38.40
2018-09-25T10:38:32.203Z,37.10
2018-09-25T10:41:09.303Z,37.20
2018-09-25T10:43:46.293Z,36.80
2018-09-25T10:46:23.006Z,35.10
2018-09-25T10:48:59.487Z,35.00
2018-09-25T10:51:36.937Z,34.20
2018-09-25T10:54:13.836Z,35.20
2018-09-25T10:56:50.631Z,34.80
2018-09-25T10:59:28.011Z,35.80
2018-09-25T11:02:05.110Z,36.10
2018-09-25T11:04:41.871Z,35.80
2018-09-25T11:07:18.394Z,36.90
2018-09-25T11:09:55.577Z,36.10
2018-09-25T11:12:32.681Z,35.30
2018-09-25T11:15:10.168Z,35.00
2018-09-25T11:17:47.486Z,35.50
2018-09-25T11:20:24.441Z,35.50
2018-09-25T11:23:01.462Z,34.70
2018-09-25T11:25:38.695Z,34.80
2018-09-25T11:28:15.937Z,35.30
2018-09-25T11:30:53.086Z,35.80
2018-09-25T11:33:30.187Z,34.90
2018-09-25T11:36:07.524Z,34.90
2018-09-25T11:38:44.457Z,34.20
2018-09-25T11:41:21.622Z,34.10
2018-09-25T11:43:59.088Z,35.30
2018-09-25T11:46:36.341Z,34.50
2018-09-25T11:49:13.544Z,33.60
2018-09-25T11:51:50.691Z,34.60
2018-09-25T11:54:28.034Z,34.60
2018-09-25T11:57:05.318Z,34.30
2018-09-25T11:59:42.410Z,33.10
2018-09-25T12:02:19.386Z,34.40
2018-09-25T12:04:56.476Z,33.40
2018-09-25T12:07:33.751Z,34.60
2018-09-25T12:10:10.830Z,34.60
2018-09-25T12:12:47.923Z,34.70
2018-09-25T12:15:24.916Z,35.10
2018-09-25T12:18:02.466Z,35.00
2018-09-25T12:20:39.429Z,35.90
2018-09-25T12:23:16.640Z,35.30
2018-09-25T12:25:53.481Z,35.90
2018-09-25T12:28:30.779Z,36.20
2018-09-25T12:31:08.233Z,36.60
2018-09-25T12:33:45.134Z,36.70
2018-09-25T12:36:22.550Z,35.90
2018-09-25T12:38:59.700Z,36.30
2018-09-25T12:41:36.035Z,36.50
2018-09-25T12:44:13.411Z,35.50
2018-09-25T12:46:50.457Z,36.70
2018-09-25T12:49:27.658Z,35.40
2018-09-25T12:52:04.416Z,35.50
2018-09-25T12:54:41.356Z,35.70
2018-09-25T12:57:18.321Z,35.70
2018-09-25T12:59:54.677Z,37.20
2018-09-25T13:02:31.889Z,36.50
2018-09-25T13:05:08.914Z,36.10
2018-09-25T13:07:46.466Z,36.90
2018-09-25T13:10:23.865Z,37.30
2018-09-25T13:13:00.561Z,38.30
2018-09-25T13:15:37.459Z,37.60
2018-09-25T13:18:13.830Z,37.10
2018-09-25T13:20:51.394Z,37.50
2018-09-25T13:23:28.498Z,37.90
2018-09-25T13:26:05.664Z,36.10
2018-09-25T13:28:42.867Z,36.60
2018-09-25T13:31:20.071Z,36.80
2018-09-25T13:33:57.181Z,36.50
2018-09-25T13:36:33.853Z,36.50
2018-09-25T13:39:13.019Z,37.10
2018-09-25T13:41:50.167Z,38.10
2018-09-25T13:44:27.169Z,38.30
2018-09-25T13:47:04.690Z,38.40
2018-09-25T13:49:41.825Z,38.40
2018-09-25T13:52:18.739Z,38.70
2018-09-25T13:54:55.754Z,38.50
2018-09-25T13:57:32.423Z,37.70
2018-09-25T14:00:10.211Z,38.10
2018-09-25T14:02:47.249Z,37.70
2018-09-25T14:05:24.378Z,38.00
2018-09-25T14:08:01.420Z,38.00
2018-09-25T14:10:38.609Z,39.40
2018-09-25T14:13:15.309Z,39.40
2018-09-25T14:15:51.883Z,39.80
2018-09-25T14:18:28.819Z,38.50
2018-09-25T14:21:05.688Z,38.90
2018-09-25T14:23:42.833Z,39.30
2018-09-25T14:26:20.978Z,38.80
2018-09-25T14:28:58.675Z,38.40
2018-09-25T14:31:36.987Z,38.40
2018-09-25T14:34:14.090Z,38.90
2018-09-25T14:36:51.165Z,39.10
2018-09-25T14:39:29.137Z,39.40
2018-09-25T14:42:06.402Z,40.20
2018-09-25T14:44:43.653Z,41.70
2018-09-25T14:47:22.996Z,40.80
2018-09-25T14:50:00.327Z,40.80
2018-09-25T14:52:36.942Z,41.00
2018-09-25T14:55:14.278Z,41.40
2018-09-25T14:57:51.775Z,41.00
2018-09-25T15:00:28.784Z,41.00
2018-09-25T15:03:06.578Z,41.40
2018-09-25T15:05:44.178Z,40.80
2018-09-25T15:08:21.533Z,40.40
2018-09-25T15:10:59.660Z,40.10
2018-09-25T15:13:36.692Z,40.30
2018-09-25T15:16:14.348Z,40.70
2018-09-25T15:18:51.521Z,40.30
2018-09-25T15:21:28.658Z,40.40
2018-09-25T15:24:06.258Z,39.80
2018-09-25T15:26:43.457Z,40.40
2018-09-25T15:29:21.528Z,39.80
2018-09-25T15:31:58.880Z,39.80
2018-09-25T15:34:36.068Z,40.40
2018-09-25T15:37:13.253Z,40.80
2018-09-25T15:39:49.875Z,40.80
2018-09-25T15:42:26.992Z,40.50
2018-09-25T15:45:04.545Z,40.10
2018-09-25T15:47:41.772Z,39.40
2018-09-25T15:50:19.676Z,39.80
2018-09-25T15:52:56.854Z,38.40
2018-09-25T15:55:34.164Z,40.20
2018-09-25T15:58:11.446Z,40.60
2018-09-25T16:00:48.581Z,41.50
2018-09-25T16:03:25.799Z,40.90
2018-09-25T16:06:03.487Z,40.50
2018-09-25T16:08:40.485Z,40.70
2018-09-25T16:11:17.302Z,40.70
2018-09-25T16:13:54.473Z,41.00
2018-09-25T16:16:31.856Z,41.40
2018-09-25T16:19:08.999Z,41.30
2018-09-25T16:21:46.530Z,41.40
2018-09-25T16:24:23.825Z,41.90
2018-09-25T16:27:00.640Z,42.30
2018-09-25T16:29:37.823Z,42.60
2018-09-25T16:32:16.225Z,42.90
2018-09-25T16:34:53.750Z,43.10
2018-09-25T16:37:30.966Z,42.90
2018-09-25T16:40:14.560Z,42.90
2018-09-25T16:42:51.689Z,43.00
2018-09-25T16:45:28.978Z,43.20
2018-09-25T16:48:06.618Z,43.70
2018-09-25T16:50:44.168Z,44.10
2018-09-25T16:53:21.880Z,44.50
2018-09-25T16:55:59.977Z,44.40
2018-09-25T16:58:37.593Z,44.40
2018-09-25T17:01:15.760Z,44.50
2018-09-25T17:03:52.875Z,44.70
2018-09-25T17:06:31.144Z,45.20
2018-09-25T17:09:08.280Z,45.00
2018-09-25T17:11:45.704Z,44.90
2018-09-25T17:14:23.723Z,45.20
2018-09-25T17:17:00.980Z,45.70
2018-09-25T17:19:38.513Z,46.40
2018-09-25T17:22:15.774Z,46.00
2018-09-25T17:24:53.012Z,45.90
2018-09-25T17:27:30.213Z,46.20
2018-09-25T17:30:06.906Z,46.50
2018-09-25T17:32:44.985Z,46.40
2018-09-25T17:35:21.981Z,45.80
2018-09-25T17:38:00.295Z,45.70
2018-09-25T17:40:39.496Z,45.50
2018-09-25T17:43:16.613Z,45.80
2018-09-25T17:45:54.027Z,46.00
2018-09-25T17:48:31.485Z,45.90
2018-09-25T17:51:08.763Z,45.90
2018-09-25T17:53:46.704Z,46.40
2018-09-25T17:56:24.809Z,47.10
2018-09-25T17:59:02.117Z,47.60
2018-09-25T18:01:39.664Z,48.60
2018-09-25T18:04:16.654Z,48.40
2018-09-25T18:06:53.630Z,48.80
2018-09-25T18:09:30.978Z,49.10
2018-09-25T18:12:09.082Z,49.40
2018-09-25T18:14:47.198Z,49.50
2018-09-25T18:17:25.655Z,49.70
2018-09-25T18:20:03.361Z,49.40
2018-09-25T18:22:40.795Z,49.60
2018-09-25T18:25:18.913Z,49.40
2018-09-25T18:27:56.577Z,49.40
2018-09-25T18:30:34.540Z,49.80
2018-09-25T18:33:14.059Z,49.60
2018-09-25T18:35:51.753Z,49.50
2018-09-25T18:38:29.883Z,49.30
2018-09-25T18:41:06.890Z,49.40
2018-09-25T18:43:44.392Z,49.20
2018-09-25T18:46:22.097Z,48.70
2018-09-25T18:48:59.432Z,48.30
2018-09-25T18:51:37.168Z,48.10
2018-09-25T18:54:16.517Z,48.30
2018-09-25T18:56:53.926Z,48.60
2018-09-25T18:59:31.438Z,48.80
2018-09-25T19:02:09.368Z,48.80
2018-09-25T19:04:46.983Z,49.30
2018-09-25T19:07:25.816Z,48.80
2018-09-25T19:10:03.525Z,49.40
2018-09-25T19:12:41.596Z,49.80
2018-09-25T19:15:19.418Z,50.10
2018-09-25T19:17:57.967Z,49.90
2018-09-25T19:20:35.746Z,50.00
2018-09-25T19:23:13.369Z,50.00
2018-09-25T19:25:50.415Z,51.30
2018-09-25T19:28:27.517Z,50.50
2018-09-25T19:31:05.404Z,51.40
2018-09-25T19:33:42.155Z,51.10
2018-09-25T19:36:19.284Z,50.30
2018-09-25T19:38:56.642Z,50.10
2018-09-25T19:41:33.647Z,50.20
2018-09-25T19:44:11.048Z,50.90
2018-09-25T19:46:48.520Z,51.20
2018-09-25T19:49:25.917Z,51.90
2018-09-25T19:52:03.413Z,51.90
2018-09-25T19:54:40.469Z,51.80
2018-09-25T19:57:17.807Z,51.90
2018-09-25T19:59:55.072Z,52.70
2018-09-25T20:02:32.212Z,53.60
2018-09-25T20:05:10.233Z,53.80
2018-09-25T20:07:47.889Z,56.00
2018-09-25T20:10:25.573Z,55.30
2018-09-25T20:13:02.327Z,55.70
2018-09-25T20:15:39.464Z,56.00
2018-09-25T20:18:16.402Z,56.40
2018-09-25T20:20:53.972Z,57.20
2018-09-25T20:23:31.140Z,57.30
2018-09-25T20:26:07.802Z,58.20
2018-09-25T20:28:44.965Z,57.90
2018-09-25T20:31:21.971Z,58.10
2018-09-25T20:33:59.241Z,58.80
2018-09-25T20:36:42.031Z,59.70
2018-09-25T20:39:24.558Z,59.60
2018-09-25T20:42:07.336Z,59.40
2018-09-25T20:44:50.025Z,60.10
2018-09-25T20:47:27.301Z,59.40
2018-09-25T20:50:04.666Z,59.10
2018-09-25T20:52:41.857Z,59.70
2018-09-25T20:55:18.944Z,59.40
2018-09-25T20:57:55.836Z,59.50
2018-09-25T21:00:33.750Z,59.80
2018-09-25T21:03:11.394Z,61.50
2018-09-25T21:05:48.282Z,59.60
2018-09-25T21:08:26.283Z,59.40
2018-09-25T21:11:04.203Z,59.60
2018-09-25T21:13:41.022Z,59.90
2018-09-25T21:16:17.987Z,60.20
2018-09-25T21:18:55.220Z,60.60
2018-09-25T21:21:31.968Z,60.90
2018-09-25T21:24:09.053Z,61.70
2018-09-25T21:26:46.136Z,62.10
2018-09-25T21:29:23.640Z,61.80
2018-09-25T21:32:00.822Z,63.20
2018-09-25T21:34:37.872Z,63.00
2018-09-25T21:37:15.835Z,64.30
2018-09-25T21:39:53.575Z,62.70
2018-09-25T21:42:30.370Z,62.60
2018-09-25T21:45:07.496Z,62.80
2018-09-25T21:47:44.034Z,62.70
2018-09-25T21:50:21.253Z,62.70
2018-09-25T21:52:58.643Z,64.50
2018-09-25T21:55:35.639Z,63.50
2018-09-25T21:58:12.219Z,63.50
2018-09-25T22:00:48.866Z,63.60
2018-09-25T22:03:25.893Z,63.30
2018-09-25T22:06:03.069Z,64.00
2018-09-25T22:08:43.789Z,65.00
2018-09-25T22:11:21.534Z,64.50
2018-09-25T22:13:58.498Z,64.70
2018-09-25T22:16:35.269Z,65.20
2018-09-25T22:19:12.648Z,64.90
2018-09-25T22:21:49.613Z,65.30
2018-09-25T22:24:27.044Z,65.50
2018-09-25T22:27:03.873Z,65.90
2018-09-25T22:29:41.824Z,65.20
2018-09-25T22:32:18.701Z,65.00
2018-09-25T22:34:56.135Z,64.40
2018-09-25T22:37:32.890Z,65.20
2018-09-25T22:40:10.113Z,64.80
2018-09-25T22:42:47.229Z,64.30
2018-09-25T22:45:23.826Z,64.70
2018-09-25T22:48:01.144Z,64.70
2018-09-25T22:50:38.179Z,64.60
2018-09-25T22:53:16.257Z,64.40
2018-09-25T22:55:54.119Z,64.60
2018-09-25T22:58:30.887Z,64.50
2018-09-25T23:01:07.532Z,64.90
2018-09-25T23:03:44.373Z,64.70
2018-09-25T23:06:20.863Z,64.80
2018-09-25T23:08:57.916Z,64.80
2018-09-25T23:11:34.596Z,65.50
2018-09-25T23:14:11.536Z,65.30
2018-09-25T23:16:49.171Z,65.60
2018-09-25T23:19:25.785Z,66.10
2018-09-25T23:22:02.436Z,66.20
2018-09-25T23:24:39.302Z,65.80
2018-09-25T23:27:16.094Z,66.10
2018-09-25T23:29:53.013Z,65.70
2018-09-25T23:32:29.859Z,67.10
2018-09-25T23:35:06.716Z,67.80
2018-09-25T23:37:43.662Z,68.10
2018-09-25T23:40:20.734Z,68.10
2018-09-25T23:42:57.992Z,67.00
2018-09-25T23:45:34.976Z,66.50
2018-09-25T23:48:12.465Z,67.90
2018-09-25T23:50:52.742Z,67.90
2018-09-25T23:53:33.200Z,67.70
2018-09-25T23:56:10.248Z,67.40
2018-09-25T23:58:49.123Z,66.60
